Time;durP1;ratioP1;P1;durP2;ratioP2;P2;SDS_P1;SDS_P2;PMS_P1;PMS_P2;Temp;Humidity;BMP_temperature;BMP_pressure;BME280_temperature;BME280_humidity;BME280_pressure;Samples;Min_cycle;Max_cycle;Signal;HPM_P1;HPM_P2
2023/06/17 00:00:20;;;;;;;12.52;4.72;;;;;;;;;;5148215;27;20047;-73
2023/06/17 00:02:51;;;;;;;12.55;4.22;;;;;;;;;;5148161;27;20042;-73
2023/06/17 00:05:24;;;;;;;14.43;4.18;;;;;;;;;;5147920;27;20053;-74
2023/06/17 00:07:55;;;;;;;8.85;3.65;;;;;;;;;;5147727;27;20039;-73
2023/06/17 00:10:25;;;;;;;9.63;4.32;;;;;;;;;;5148062;27;20065;-75
2023/06/17 00:12:55;;;;;;;10.70;4.57;;;;;;;;;;5148184;27;20062;-74
2023/06/17 00:15:28;;;;;;;8.80;3.60;;;;;;;;;;5148033;27;20043;-74
2023/06/17 00:18:02;;;;;;;15.10;4.65;;;;;;;;;;5149166;27;20054;-74
2023/06/17 00:20:36;;;;;;;7.05;3.67;;;;;;;;;;5148229;27;20513;-75
2023/06/17 00:23:08;;;;;;;8.77;3.55;;;;;;;;;;5147392;27;20061;-75
2023/06/17 00:25:39;;;;;;;8.20;4.80;;;;;;;;;;5147160;27;20054;-74
2023/06/17 00:28:11;;;;;;;11.50;3.90;;;;;;;;;;5147764;27;20050;-75
2023/06/17 00:30:41;;;;;;;13.68;4.20;;;;;;;;;;5128549;27;20046;-74
2023/06/17 00:33:12;;;;;;;13.68;4.35;;;;;;;;;;5128127;27;20055;-74
2023/06/17 00:35:42;;;;;;;4.95;2.92;;;;;;;;;;5147818;27;20043;-74
2023/06/17 00:38:14;;;;;;;9.43;3.35;;;;;;;;;;5147213;27;20512;-73
2023/06/17 00:40:45;;;;;;;8.45;3.95;;;;;;;;;;5128122;27;20061;-74
2023/06/17 00:43:22;;;;;;;13.32;4.70;;;;;;;;;;5147216;27;20425;-73
2023/06/17 00:45:52;;;;;;;15.75;4.10;;;;;;;;;;5147324;27;20054;-73
2023/06/17 00:48:24;;;;;;;8.90;3.60;;;;;;;;;;5128030;27;20058;-74
2023/06/17 00:51:01;;;;;;;11.13;3.90;;;;;;;;;;5146085;27;20042;-74
2023/06/17 00:53:32;;;;;;;10.82;3.28;;;;;;;;;;5147459;27;20039;-74
2023/06/17 00:56:04;;;;;;;6.82;3.50;;;;;;;;;;5127572;27;20058;-73
2023/06/17 00:58:37;;;;;;;5.85;3.53;;;;;;;;;;5146876;27;20047;-74
2023/06/17 01:01:10;;;;;;;7.68;3.80;;;;;;;;;;5127609;27;20059;-73
2023/06/17 01:03:41;;;;;;;8.10;3.72;;;;;;;;;;5146789;27;20054;-72
2023/06/17 01:06:24;;;;;;;11.63;4.22;;;;;;;;;;5147204;27;20039;-72
2023/06/17 01:09:06;;;;;;;13.63;3.40;;;;;;;;;;5127348;27;20447;-74
2023/06/17 01:11:40;;;;;;;12.55;3.70;;;;;;;;;;5147102;27;20047;-73
2023/06/17 01:14:13;;;;;;;10.77;4.00;;;;;;;;;;5127461;27;20078;-74
2023/06/17 01:16:44;;;;;;;9.25;3.47;;;;;;;;;;5126026;27;20058;-74
2023/06/17 01:19:20;;;;;;;15.63;4.35;;;;;;;;;;5145421;27;20424;-73
2023/06/17 01:21:53;;;;;;;7.50;3.35;;;;;;;;;;5144076;27;20513;-73
2023/06/17 01:24:28;;;;;;;12.20;4.28;;;;;;;;;;5145629;27;20054;-74
2023/06/17 01:27:02;;;;;;;12.50;3.65;;;;;;;;;;5128236;27;20050;-74
2023/06/17 01:29:38;;;;;;;8.70;4.55;;;;;;;;;;5146114;27;20042;-72
2023/06/17 01:32:10;;;;;;;13.40;4.65;;;;;;;;;;5145633;27;20039;-74
2023/06/17 01:34:47;;;;;;;11.20;3.85;;;;;;;;;;5146031;27;20689;-74
2023/06/17 01:37:27;;;;;;;8.38;4.10;;;;;;;;;;5127559;27;20050;-73
2023/06/17 01:40:01;;;;;;;10.40;4.55;;;;;;;;;;5146956;27;20046;-74
2023/06/17 01:42:35;;;;;;;12.50;4.13;;;;;;;;;;5127672;27;20062;-73
2023/06/17 01:45:08;;;;;;;7.65;4.03;;;;;;;;;;5111283;27;20047;-74
2023/06/17 01:47:41;;;;;;;8.10;3.75;;;;;;;;;;5126449;27;20057;-75
2023/06/17 01:50:12;;;;;;;14.20;3.60;;;;;;;;;;5127072;27;20678;-74
2023/06/17 01:52:49;;;;;;;6.75;3.45;;;;;;;;;;5146620;27;20042;-74
2023/06/17 01:55:19;;;;;;;11.32;3.90;;;;;;;;;;5146213;27;20039;-74
2023/06/17 01:57:51;;;;;;;13.82;2.97;;;;;;;;;;5126883;27;20068;-75
2023/06/17 02:00:20;;;;;;;;;;;;;;;;;;5128650;27;20062;-73
2023/06/17 02:02:54;;;;;;;9.18;2.72;;;;;;;;;;5127203;27;19923;-75
2023/06/17 02:05:26;;;;;;;8.50;2.80;;;;;;;;;;5146019;27;20051;-74
2023/06/17 02:07:59;;;;;;;9.05;2.60;;;;;;;;;;5127159;27;20054;-75
2023/06/17 02:10:33;;;;;;;13.38;4.22;;;;;;;;;;5127335;27;20055;-73
2023/06/17 02:13:04;;;;;;;6.30;2.90;;;;;;;;;;5127137;27;20046;-74
2023/06/17 02:15:35;;;;;;;12.55;3.83;;;;;;;;;;5146231;27;20043;-72
2023/06/17 02:18:07;;;;;;;11.00;2.80;;;;;;;;;;5127425;27;20533;-75
2023/06/17 02:20:40;;;;;;;7.53;2.72;;;;;;;;;;5147901;27;20047;-74
2023/06/17 02:23:09;;;;;;;;;;;;;;;;;;5150924;27;20061;-75
2023/06/17 02:25:39;;;;;;;14.80;2.63;;;;;;;;;;5149892;27;19926;-73
2023/06/17 02:28:10;;;;;;;5.47;2.55;;;;;;;;;;5150251;27;20043;-73
2023/06/17 02:30:42;;;;;;;5.75;2.55;;;;;;;;;;5149782;27;20515;-73
2023/06/17 02:33:17;;;;;;;10.68;3.00;;;;;;;;;;5150948;27;20396;-73
2023/06/17 02:35:49;;;;;;;8.32;2.42;;;;;;;;;;5150174;27;20057;-74
2023/06/17 02:38:20;;;;;;;7.85;2.60;;;;;;;;;;5130364;27;20537;-73
2023/06/17 02:40:52;;;;;;;9.90;3.33;;;;;;;;;;5130429;27;20047;-73
2023/06/17 02:43:23;;;;;;;9.68;2.67;;;;;;;;;;5130768;27;20047;-72
2023/06/17 02:45:52;;;;;;;;;;;;;;;;;;5150439;27;20078;-73
2023/06/17 02:48:23;;;;;;;7.13;2.50;;;;;;;;;;5149896;27;19926;-74
2023/06/17 02:50:54;;;;;;;7.75;3.03;;;;;;;;;;5130640;27;20062;-72
2023/06/17 02:53:25;;;;;;;6.57;2.83;;;;;;;;;;5149554;27;20051;-75
2023/06/17 02:55:55;;;;;;;7.13;2.80;;;;;;;;;;5130479;27;20163;-74
2023/06/17 02:58:26;;;;;;;7.85;3.22;;;;;;;;;;5130326;27;20469;-72
2023/06/17 03:00:58;;;;;;;5.65;2.35;;;;;;;;;;5130668;27;20054;-72
2023/06/17 03:03:35;;;;;;;7.40;2.80;;;;;;;;;;5130982;27;20057;-74
2023/06/17 03:06:07;;;;;;;8.20;3.22;;;;;;;;;;5130652;27;20540;-72
2023/06/17 03:08:41;;;;;;;8.68;2.88;;;;;;;;;;5130104;27;20053;-73
2023/06/17 03:11:11;;;;;;;12.20;3.03;;;;;;;;;;5130665;27;20062;-73
2023/06/17 03:13:44;;;;;;;9.60;2.90;;;;;;;;;;5130148;27;20042;-74
2023/06/17 03:16:24;;;;;;;8.18;2.78;;;;;;;;;;5129291;27;21174;-74
2023/06/17 03:18:54;;;;;;;9.57;2.97;;;;;;;;;;5129996;27;20046;-75
2023/06/17 03:21:25;;;;;;;4.65;2.40;;;;;;;;;;5130270;27;20050;-75
2023/06/17 03:23:58;;;;;;;11.20;3.22;;;;;;;;;;5149123;27;20513;-74
2023/06/17 03:26:30;;;;;;;9.98;2.63;;;;;;;;;;5129578;27;20505;-73
2023/06/17 03:29:03;;;;;;;13.85;3.25;;;;;;;;;;5129109;27;20047;-73
2023/06/17 03:31:35;;;;;;;12.80;3.00;;;;;;;;;;5129009;27;20055;-73
2023/06/17 03:34:07;;;;;;;9.68;3.08;;;;;;;;;;5129365;27;20071;-74
2023/06/17 03:36:39;;;;;;;8.38;2.88;;;;;;;;;;5129592;27;20058;-72
2023/06/17 03:39:11;;;;;;;8.05;2.88;;;;;;;;;;5129485;27;20054;-74
2023/06/17 03:41:43;;;;;;;13.52;4.70;;;;;;;;;;5129857;27;20062;-74
2023/06/17 03:44:14;;;;;;;7.55;3.17;;;;;;;;;;5148832;27;20050;-74
2023/06/17 03:46:44;;;;;;;6.85;2.58;;;;;;;;;;5129478;27;20054;-74
2023/06/17 03:49:14;;;;;;;;;;;;;;;;;;5149074;27;20050;-75
2023/06/17 03:51:44;;;;;;;4.95;2.33;;;;;;;;;;5128727;27;20396;-73
2023/06/17 03:54:16;;;;;;;10.88;2.40;;;;;;;;;;5113592;27;20047;-74
2023/06/17 03:56:48;;;;;;;6.18;2.60;;;;;;;;;;5129849;27;20050;-73
2023/06/17 03:59:18;;;;;;;10.02;3.38;;;;;;;;;;5129107;27;20051;-74
2023/06/17 04:01:48;;;;;;;6.18;2.42;;;;;;;;;;5129206;27;20050;-74
2023/06/17 04:04:20;;;;;;;7.40;2.63;;;;;;;;;;5147886;27;20055;-73
2023/06/17 04:06:52;;;;;;;5.45;2.40;;;;;;;;;;5128610;27;20133;-74
2023/06/17 04:09:23;;;;;;;9.75;2.35;;;;;;;;;;5148783;27;20050;-74
2023/06/17 04:11:54;;;;;;;8.20;2.13;;;;;;;;;;5130254;27;20038;-74
2023/06/17 04:14:24;;;;;;;6.20;2.20;;;;;;;;;;5148653;27;20507;-73
2023/06/17 04:16:59;;;;;;;5.72;1.77;;;;;;;;;;5128675;27;20054;-73
2023/06/17 04:19:31;;;;;;;7.57;2.20;;;;;;;;;;5129192;27;20051;-74
2023/06/17 04:22:02;;;;;;;3.83;1.83;;;;;;;;;;5147763;27;20042;-74
2023/06/17 04:24:33;;;;;;;3.92;1.88;;;;;;;;;;5129012;27;20043;-74
2023/06/17 04:27:05;;;;;;;9.73;1.63;;;;;;;;;;5128629;27;20051;-74
2023/06/17 04:29:37;;;;;;;8.40;2.20;;;;;;;;;;5128771;27;20139;-73
2023/06/17 04:32:10;;;;;;;7.90;1.75;;;;;;;;;;5128250;27;20054;-73
2023/06/17 04:34:42;;;;;;;5.30;1.85;;;;;;;;;;5129068;27;20077;-73
2023/06/17 04:37:14;;;;;;;5.68;2.05;;;;;;;;;;5128278;27;20047;-74
2023/06/17 04:39:46;;;;;;;5.32;1.65;;;;;;;;;;5147383;27;20053;-74
2023/06/17 04:42:17;;;;;;;5.95;1.80;;;;;;;;;;5128049;27;20051;-73
2023/06/17 04:44:48;;;;;;;3.85;1.85;;;;;;;;;;5128415;27;20050;-73
2023/06/17 04:47:22;;;;;;;8.95;1.77;;;;;;;;;;5128667;27;20050;-72
2023/06/17 04:49:54;;;;;;;6.38;2.40;;;;;;;;;;5147309;27;20046;-74
2023/06/17 04:52:29;;;;;;;8.68;2.17;;;;;;;;;;5128470;27;20066;-74
2023/06/17 04:55:03;;;;;;;4.72;1.65;;;;;;;;;;5128039;27;20049;-72
2023/06/17 04:57:34;;;;;;;9.45;2.10;;;;;;;;;;5128015;27;20527;-72
2023/06/17 05:00:05;;;;;;;7.28;1.50;;;;;;;;;;5147106;27;20046;-74
2023/06/17 05:02:36;;;;;;;4.78;1.33;;;;;;;;;;5127623;27;20055;-74
2023/06/17 05:05:07;;;;;;;8.50;1.90;;;;;;;;;;5128417;27;20493;-72
2023/06/17 05:07:38;;;;;;;5.20;1.63;;;;;;;;;;5127397;27;20051;-74
2023/06/17 05:10:10;;;;;;;6.50;1.75;;;;;;;;;;5146571;27;20046;-75
2023/06/17 05:12:43;;;;;;;5.93;1.30;;;;;;;;;;5127331;27;20050;-74
2023/06/17 05:15:13;;;;;;;6.90;1.45;;;;;;;;;;5127204;27;20042;-72
2023/06/17 05:17:45;;;;;;;6.97;1.85;;;;;;;;;;5128066;27;20427;-74
2023/06/17 05:20:17;;;;;;;5.93;1.38;;;;;;;;;;5127779;27;20054;-73
2023/06/17 05:22:48;;;;;;;4.07;1.30;;;;;;;;;;5127506;27;20057;-73
2023/06/17 05:25:18;;;;;;;2.42;1.33;;;;;;;;;;5146763;27;20043;-74
2023/06/17 05:27:50;;;;;;;7.65;1.60;;;;;;;;;;5127288;27;20065;-74
2023/06/17 05:30:23;;;;;;;9.48;1.25;;;;;;;;;;5127450;27;20058;-72
2023/06/17 05:32:56;;;;;;;3.38;1.23;;;;;;;;;;5127418;27;20416;-73
2023/06/17 05:35:28;;;;;;;8.68;1.45;;;;;;;;;;5110772;27;20042;-74
2023/06/17 05:38:00;;;;;;;7.68;1.40;;;;;;;;;;5127107;27;20058;-73
2023/06/17 05:40:30;;;;;;;4.93;1.38;;;;;;;;;;5127394;27;20218;-74
2023/06/17 05:43:01;;;;;;;2.63;1.15;;;;;;;;;;5127275;27;20050;-73
2023/06/17 05:45:31;;;;;;;9.30;1.42;;;;;;;;;;5127641;27;20509;-73
2023/06/17 05:48:02;;;;;;;4.13;1.40;;;;;;;;;;5127218;27;20055;-74
2023/06/17 05:50:33;;;;;;;6.13;1.75;;;;;;;;;;5127366;27;20433;-73
2023/06/17 05:53:04;;;;;;;5.07;2.25;;;;;;;;;;5127712;27;20544;-74
2023/06/17 05:55:34;;;;;;;2.92;1.40;;;;;;;;;;5131124;27;20047;-73
2023/06/17 05:58:06;;;;;;;6.90;1.20;;;;;;;;;;5131220;27;20519;-72
2023/06/17 06:00:46;;;;;;;8.05;1.83;;;;;;;;;;5131081;27;20433;-73
2023/06/17 06:03:17;;;;;;;9.75;1.48;;;;;;;;;;5150545;27;20043;-73
2023/06/17 06:05:47;;;;;;;6.82;1.08;;;;;;;;;;5131467;27;20050;-73
2023/06/17 06:08:19;;;;;;;6.15;1.30;;;;;;;;;;5131467;27;20411;-74
2023/06/17 06:10:51;;;;;;;2.22;0.93;;;;;;;;;;5131169;27;20050;-73
2023/06/17 06:13:24;;;;;;;5.13;0.82;;;;;;;;;;5150242;27;20050;-74
2023/06/17 06:15:55;;;;;;;1.80;0.85;;;;;;;;;;5150363;27;20046;-72
2023/06/17 06:18:28;;;;;;;6.68;1.30;;;;;;;;;;5130922;27;20058;-73
2023/06/17 06:20:59;;;;;;;5.88;1.52;;;;;;;;;;5130946;27;20055;-74
2023/06/17 06:23:30;;;;;;;4.60;0.93;;;;;;;;;;5131539;27;20051;-74
2023/06/17 06:26:01;;;;;;;4.15;0.98;;;;;;;;;;5130631;27;20046;-74
2023/06/17 06:28:32;;;;;;;4.22;1.38;;;;;;;;;;5131016;27;20436;-74
2023/06/17 06:31:04;;;;;;;4.80;1.40;;;;;;;;;;5130711;27;20054;-74
2023/06/17 06:33:35;;;;;;;2.83;1.30;;;;;;;;;;5130533;27;20425;-73
2023/06/17 06:36:09;;;;;;;9.10;1.35;;;;;;;;;;5131074;27;20057;-73
2023/06/17 06:38:40;;;;;;;4.18;1.02;;;;;;;;;;5149874;27;20047;-73
2023/06/17 06:41:10;;;;;;;;;;;;;;;;;;5150802;27;20074;-73
2023/06/17 06:43:49;;;;;;;1.60;0.90;;;;;;;;;;5130864;27;19930;-75
2023/06/17 06:46:19;;;;;;;8.10;1.30;;;;;;;;;;5130561;27;20061;-74
2023/06/17 06:48:49;;;;;;;2.28;1.13;;;;;;;;;;5129450;27;20055;-75
2023/06/17 06:51:20;;;;;;;7.40;1.42;;;;;;;;;;5130595;27;20054;-73
2023/06/17 06:53:51;;;;;;;4.43;1.02;;;;;;;;;;5130392;27;20046;-74
2023/06/17 06:56:22;;;;;;;6.25;1.50;;;;;;;;;;5149605;27;20527;-72
2023/06/17 06:58:56;;;;;;;2.30;1.23;;;;;;;;;;5149605;27;20057;-74
2023/06/17 07:01:27;;;;;;;4.22;1.30;;;;;;;;;;5129902;27;20047;-73
2023/06/17 07:03:58;;;;;;;6.20;1.40;;;;;;;;;;5129858;27;20050;-74
2023/06/17 07:06:30;;;;;;;4.65;1.58;;;;;;;;;;5148541;27;20785;-73
2023/06/17 07:09:03;;;;;;;10.80;2.03;;;;;;;;;;5129953;27;20499;-74
2023/06/17 07:11:33;;;;;;;3.50;1.42;;;;;;;;;;5130038;27;20078;-74
2023/06/17 07:14:04;;;;;;;7.30;2.30;;;;;;;;;;5130374;27;20055;-73
2023/06/17 07:16:37;;;;;;;8.55;1.90;;;;;;;;;;5130467;27;20512;-74
2023/06/17 07:19:08;;;;;;;8.77;2.13;;;;;;;;;;5148905;27;20235;-72
2023/06/17 07:21:38;;;;;;;;;;;;;;;;;;5130531;27;20043;-74
2023/06/17 07:24:08;;;;;;;8.98;1.40;;;;;;;;;;5129734;27;20645;-73
2023/06/17 07:26:39;;;;;;;3.20;1.80;;;;;;;;;;5129481;27;20050;-74
2023/06/17 07:29:10;;;;;;;3.28;1.60;;;;;;;;;;5129588;27;20055;-72
2023/06/17 07:31:40;;;;;;;5.43;1.27;;;;;;;;;;5129804;27;20062;-74
2023/06/17 07:34:10;;;;;;;3.47;1.73;;;;;;;;;;5129397;27;20519;-73
2023/06/17 07:36:41;;;;;;;4.60;1.52;;;;;;;;;;5129558;27;20081;-74
2023/06/17 07:39:13;;;;;;;3.13;1.42;;;;;;;;;;5129637;27;20065;-74
2023/06/17 07:41:43;;;;;;;12.70;2.20;;;;;;;;;;5148426;27;20051;-74
2023/06/17 07:44:14;;;;;;;5.35;1.77;;;;;;;;;;5148710;27;20527;-74
2023/06/17 07:46:45;;;;;;;5.35;1.65;;;;;;;;;;5148788;27;20054;-74
2023/06/17 07:49:16;;;;;;;4.95;1.48;;;;;;;;;;5148992;27;20055;-74
2023/06/17 07:51:47;;;;;;;8.05;2.25;;;;;;;;;;5148548;27;20409;-74
2023/06/17 07:54:17;;;;;;;6.43;1.58;;;;;;;;;;5148700;27;20047;-74
2023/06/17 07:56:46;;;;;;;;;;;;;;;;;;5149022;27;20405;-74
2023/06/17 07:59:17;;;;;;;5.68;1.90;;;;;;;;;;5147997;27;19930;-74
2023/06/17 08:01:48;;;;;;;5.90;1.60;;;;;;;;;;5147753;27;20504;-73
2023/06/17 08:04:19;;;;;;;3.40;1.70;;;;;;;;;;5147982;27;20046;-74
2023/06/17 08:06:51;;;;;;;6.82;1.52;;;;;;;;;;5129444;27;20055;-73
2023/06/17 08:09:20;;;;;;;3.35;1.35;;;;;;;;;;5147542;27;20054;-73
2023/06/17 08:11:52;;;;;;;7.85;1.40;;;;;;;;;;5147787;27;20043;-74
2023/06/17 08:14:24;;;;;;;10.15;1.95;;;;;;;;;;5147785;27;20042;-73
2023/06/17 08:16:55;;;;;;;4.35;1.55;;;;;;;;;;5146365;27;20069;-73
2023/06/17 08:19:24;;;;;;;5.20;1.50;;;;;;;;;;5147193;27;20421;-73
2023/06/17 08:21:56;;;;;;;3.58;1.42;;;;;;;;;;5148205;27;20047;-74
2023/06/17 08:24:27;;;;;;;8.48;1.50;;;;;;;;;;5148005;27;20516;-73
2023/06/17 08:26:57;;;;;;;2.65;1.20;;;;;;;;;;5147353;27;20520;-73
2023/06/17 08:29:26;;;;;;;;;;;;;;;;;;5147871;27;20050;-74
2023/06/17 08:31:57;;;;;;;2.53;1.25;;;;;;;;;;5147726;27;19930;-73
2023/06/17 08:34:30;;;;;;;5.93;1.17;;;;;;;;;;5147853;27;20038;-73
2023/06/17 08:37:04;;;;;;;3.72;1.50;;;;;;;;;;5147842;27;20050;-74
2023/06/17 08:39:39;;;;;;;11.20;1.40;;;;;;;;;;5147777;27;20059;-73
2023/06/17 08:42:09;;;;;;;4.30;1.50;;;;;;;;;;5147572;27;20043;-73
2023/06/17 08:44:44;;;;;;;1.45;1.10;;;;;;;;;;5146922;27;20058;-74
2023/06/17 08:47:17;;;;;;;10.32;1.55;;;;;;;;;;5146940;27;20386;-74
2023/06/17 08:49:47;;;;;;;3.67;1.25;;;;;;;;;;5147464;27;20046;-72
2023/06/17 08:52:17;;;;;;;;;;;;;;;;;;5147922;27;20043;-73
2023/06/17 08:54:48;;;;;;;3.83;1.02;;;;;;;;;;5147575;27;19930;-73
2023/06/17 08:57:19;;;;;;;8.38;1.55;;;;;;;;;;5146993;27;20039;-73
2023/06/17 08:59:49;;;;;;;2.88;1.17;;;;;;;;;;5146886;27;20085;-73
2023/06/17 09:02:22;;;;;;;7.82;1.05;;;;;;;;;;5146570;27;20501;-73
2023/06/17 09:04:52;;;;;;;4.85;1.40;;;;;;;;;;5147004;27;20801;-73
2023/06/17 09:07:25;;;;;;;8.07;1.33;;;;;;;;;;5147049;27;20535;-72
2023/06/17 09:10:05;;;;;;;5.68;1.20;;;;;;;;;;5147562;27;20043;-73
2023/06/17 09:12:38;;;;;;;4.93;1.75;;;;;;;;;;5147101;27;20401;-74
2023/06/17 09:15:18;;;;;;;3.45;1.10;;;;;;;;;;5147184;27;20051;-74
2023/06/17 09:17:52;;;;;;;4.78;1.45;;;;;;;;;;5147092;27;20417;-73
2023/06/17 09:20:24;;;;;;;2.42;1.42;;;;;;;;;;5146520;27;20046;-73
2023/06/17 09:22:54;;;;;;;4.53;1.55;;;;;;;;;;5146470;27;20050;-73
2023/06/17 09:25:24;;;;;;;5.65;1.70;;;;;;;;;;5146824;27;20030;-74
2023/06/17 09:27:56;;;;;;;6.22;1.77;;;;;;;;;;5147130;27;20054;-73
2023/06/17 09:30:53;;;;;;;4.32;1.10;;;;;;;;;;5146039;27;20038;-72
2023/06/17 09:33:25;;;;;;;4.90;1.33;;;;;;;;;;5146515;27;20046;-74
2023/06/17 09:36:08;;;;;;;5.97;1.27;;;;;;;;;;5146632;27;20611;-74
2023/06/17 09:38:39;;;;;;;2.22;1.00;;;;;;;;;;5146470;27;20053;-77
2023/06/17 09:41:18;;;;;;;8.07;1.30;;;;;;;;;;5146976;27;20519;-73
2023/06/17 09:43:52;;;;;;;1.75;0.90;;;;;;;;;;5146523;27;20525;-73
2023/06/17 09:46:29;;;;;;;4.35;1.15;;;;;;;;;;5127986;27;20066;-74
2023/06/17 09:48:59;;;;;;;3.40;0.93;;;;;;;;;;5146705;27;20042;-73
2023/06/17 09:51:38;;;;;;;3.08;1.25;;;;;;;;;;5146219;27;20130;-74
2023/06/17 09:54:10;;;;;;;6.20;1.30;;;;;;;;;;5145867;27;20031;-73
2023/06/17 09:56:43;;;;;;;5.28;1.25;;;;;;;;;;5127085;27;20058;-76
2023/06/17 09:59:15;;;;;;;6.20;1.70;;;;;;;;;;5146061;27;20050;-74
2023/06/17 10:01:48;;;;;;;1.45;1.00;;;;;;;;;;5146745;27;20047;-73
2023/06/17 10:04:20;;;;;;;4.40;1.60;;;;;;;;;;5146880;27;20065;-73
2023/06/17 10:06:53;;;;;;;2.83;1.48;;;;;;;;;;5145923;27;20046;-73
2023/06/17 10:09:24;;;;;;;6.63;1.38;;;;;;;;;;5145841;27;20054;-73
2023/06/17 10:11:58;;;;;;;16.67;8.40;;;;;;;;;;5146008;27;20043;-73
2023/06/17 10:14:33;;;;;;;6.20;2.63;;;;;;;;;;5146370;27;20607;-73
2023/06/17 10:17:08;;;;;;;4.28;1.60;;;;;;;;;;5146430;27;20053;-73
2023/06/17 10:19:41;;;;;;;7.10;1.55;;;;;;;;;;5146791;27;20043;-76
2023/06/17 10:22:15;;;;;;;4.63;1.50;;;;;;;;;;5146398;27;20046;-73
2023/06/17 10:24:46;;;;;;;4.85;1.48;;;;;;;;;;5146109;27;20053;-72
2023/06/17 10:27:20;;;;;;;2.38;1.10;;;;;;;;;;5146195;27;20046;-73
2023/06/17 10:29:51;;;;;;;7.93;1.77;;;;;;;;;;5145935;27;20042;-73
2023/06/17 10:32:30;;;;;;;;;;;;;;;;;;5147057;27;20840;-73
2023/06/17 10:35:08;;;;;;;3.80;1.65;;;;;;;;;;5145406;27;20409;-74
2023/06/17 10:37:45;;;;;;;3.55;1.40;;;;;;;;;;5145941;27;20045;-74
2023/06/17 10:40:23;;;;;;;8.30;2.42;;;;;;;;;;5144980;27;20051;-73
2023/06/17 10:43:03;;;;;;;6.28;1.92;;;;;;;;;;5149864;27;20047;-73
2023/06/17 10:45:54;;;;;;;1.85;1.40;;;;;;;;;;5149845;27;20042;-73
2023/06/17 10:48:30;;;;;;;5.65;1.40;;;;;;;;;;5149437;27;20055;-74
2023/06/17 10:51:08;;;;;;;8.10;1.52;;;;;;;;;;5148607;27;20050;-73
2023/06/17 10:53:48;;;;;;;4.22;1.63;;;;;;;;;;5149932;27;20039;-74
2023/06/17 10:56:19;;;;;;;7.72;2.83;;;;;;;;;;5148549;27;20050;-73
2023/06/17 10:58:49;;;;;;;4.57;1.67;;;;;;;;;;5149552;27;20043;-73
2023/06/17 11:01:20;;;;;;;8.35;1.60;;;;;;;;;;5149333;27;20049;-73
2023/06/17 11:03:50;;;;;;;5.72;1.70;;;;;;;;;;5149122;27;20519;-74
2023/06/17 11:06:21;;;;;;;5.20;1.48;;;;;;;;;;5149675;27;20047;-74
2023/06/17 11:08:52;;;;;;;7.32;1.80;;;;;;;;;;5149595;27;20053;-73
2023/06/17 11:11:23;;;;;;;6.20;1.80;;;;;;;;;;5129801;27;20046;-73
2023/06/17 11:13:53;;;;;;;6.28;1.70;;;;;;;;;;5130685;27;20046;-73
2023/06/17 11:16:24;;;;;;;7.60;2.13;;;;;;;;;;5149083;27;20035;-73
2023/06/17 11:18:55;;;;;;;5.07;2.35;;;;;;;;;;5149192;27;20042;-74
2023/06/17 11:21:25;;;;;;;3.08;1.80;;;;;;;;;;5149116;27;20051;-73
2023/06/17 11:23:57;;;;;;;6.63;3.35;;;;;;;;;;5131033;27;20039;-74
2023/06/17 11:26:26;;;;;;;;;;;;;;;;;;5149723;27;20053;-74
2023/06/17 11:28:58;;;;;;;2.88;2.00;;;;;;;;;;5148381;27;19922;-74
2023/06/17 11:31:36;;;;;;;6.57;2.25;;;;;;;;;;5148246;27;20047;-73
2023/06/17 11:34:08;;;;;;;3.58;1.65;;;;;;;;;;5148496;27;20043;-72
2023/06/17 11:36:38;;;;;;;11.35;1.90;;;;;;;;;;5149012;27;20525;-73
2023/06/17 11:39:09;;;;;;;9.15;2.00;;;;;;;;;;5149061;27;20050;-73
2023/06/17 11:41:40;;;;;;;8.10;1.63;;;;;;;;;;5130146;27;20050;-74
2023/06/17 11:44:12;;;;;;;8.45;2.05;;;;;;;;;;5129306;27;20054;-74
2023/06/17 11:46:42;;;;;;;6.03;1.73;;;;;;;;;;5148442;27;20042;-72
2023/06/17 11:49:14;;;;;;;11.27;2.00;;;;;;;;;;5148702;27;20058;-73
2023/06/17 11:51:49;;;;;;;2.92;1.80;;;;;;;;;;5147836;27;20050;-73
2023/06/17 11:54:25;;;;;;;9.00;1.70;;;;;;;;;;5148167;27;20046;-74
2023/06/17 11:56:56;;;;;;;6.43;1.98;;;;;;;;;;5148696;27;20489;-77
2023/06/17 11:59:29;;;;;;;5.55;2.03;;;;;;;;;;5148342;27;20061;-74
2023/06/17 12:02:00;;;;;;;9.50;1.95;;;;;;;;;;5148349;27;20046;-73
2023/06/17 12:04:31;;;;;;;1.77;1.30;;;;;;;;;;5147735;27;20058;-73
2023/06/17 12:07:07;;;;;;;3.92;1.63;;;;;;;;;;5129903;27;20053;-73
2023/06/17 12:09:49;;;;;;;4.28;1.75;;;;;;;;;;5147884;27;20050;-73
2023/06/17 12:12:35;;;;;;;6.90;1.92;;;;;;;;;;5147254;27;20046;-74
2023/06/17 12:15:07;;;;;;;6.57;1.77;;;;;;;;;;5148739;27;20064;-73
2023/06/17 12:17:48;;;;;;;3.20;1.85;;;;;;;;;;5147639;27;20421;-73
2023/06/17 12:20:21;;;;;;;6.05;2.17;;;;;;;;;;5147323;27;20393;-73
2023/06/17 12:22:55;;;;;;;3.00;1.80;;;;;;;;;;5146575;27;20046;-73
2023/06/17 12:25:25;;;;;;;8.13;2.28;;;;;;;;;;5147447;27;20055;-73
2023/06/17 12:27:55;;;;;;;6.72;1.88;;;;;;;;;;5147929;27;20416;-73
2023/06/17 12:30:26;;;;;;;4.75;1.85;;;;;;;;;;5147532;27;20050;-74
2023/06/17 12:32:57;;;;;;;7.03;1.92;;;;;;;;;;5147799;27;20417;-75
2023/06/17 12:35:28;;;;;;;2.95;1.42;;;;;;;;;;5147601;27;20127;-76
2023/06/17 12:37:58;;;;;;;2.83;1.42;;;;;;;;;;5147844;27;20057;-75
2023/06/17 12:40:28;;;;;;;3.83;1.27;;;;;;;;;;5147438;27;20051;-75
2023/06/17 12:42:59;;;;;;;4.20;1.65;;;;;;;;;;5147739;27;20051;-74
2023/06/17 12:45:30;;;;;;;5.57;1.95;;;;;;;;;;5147562;27;20043;-76
2023/06/17 12:48:01;;;;;;;5.25;1.85;;;;;;;;;;5147962;27;20484;-74
2023/06/17 12:50:32;;;;;;;3.03;1.42;;;;;;;;;;5147365;27;20047;-76
2023/06/17 12:53:03;;;;;;;5.85;1.60;;;;;;;;;;5147609;27;20042;-75
2023/06/17 12:55:33;;;;;;;5.75;1.60;;;;;;;;;;5127497;27;20524;-75
2023/06/17 12:58:04;;;;;;;5.88;2.55;;;;;;;;;;5146152;27;20038;-75
2023/06/17 13:00:35;;;;;;;5.97;1.65;;;;;;;;;;5146206;27;20368;-75
2023/06/17 13:03:06;;;;;;;3.72;1.40;;;;;;;;;;5147237;27;20053;-76
2023/06/17 13:05:38;;;;;;;3.30;1.30;;;;;;;;;;5146769;27;20042;-75
2023/06/17 13:08:10;;;;;;;2.08;0.95;;;;;;;;;;5147349;27;20497;-77
2023/06/17 13:10:41;;;;;;;8.10;1.85;;;;;;;;;;5127801;27;20062;-75
2023/06/17 13:13:11;;;;;;;5.15;1.83;;;;;;;;;;5146567;27;20065;-76
2023/06/17 13:15:41;;;;;;;4.55;1.40;;;;;;;;;;5147259;27;20046;-76
2023/06/17 13:18:12;;;;;;;4.55;1.45;;;;;;;;;;5127887;27;20058;-75
2023/06/17 13:20:44;;;;;;;2.85;1.13;;;;;;;;;;5146968;27;20058;-75
2023/06/17 13:23:14;;;;;;;3.05;1.23;;;;;;;;;;5146818;27;20050;-76
2023/06/17 13:25:45;;;;;;;9.70;1.73;;;;;;;;;;5146649;27;20054;-76
2023/06/17 13:28:19;;;;;;;7.95;2.15;;;;;;;;;;5146974;27;20054;-80
2023/06/17 13:30:50;;;;;;;7.88;2.90;;;;;;;;;;5127974;27;20533;-77
2023/06/17 13:33:21;;;;;;;5.15;1.42;;;;;;;;;;5146656;27;20039;-76
2023/06/17 13:35:51;;;;;;;4.85;1.40;;;;;;;;;;5147198;27;20043;-77
2023/06/17 13:38:23;;;;;;;6.47;1.50;;;;;;;;;;5146829;27;20043;-76
2023/06/17 13:40:54;;;;;;;7.78;1.80;;;;;;;;;;5146759;27;20043;-76
2023/06/17 13:43:24;;;;;;;4.85;1.48;;;;;;;;;;5146926;27;20070;-76
2023/06/17 13:45:55;;;;;;;3.40;1.30;;;;;;;;;;5145263;27;20047;-75
2023/06/17 13:48:26;;;;;;;3.15;1.35;;;;;;;;;;5146704;27;20054;-75
2023/06/17 13:50:56;;;;;;;3.38;1.23;;;;;;;;;;5146713;27;20042;-76
2023/06/17 13:53:26;;;;;;;1.85;1.13;;;;;;;;;;5146814;27;20070;-76
2023/06/17 13:56:00;;;;;;;6.32;1.60;;;;;;;;;;5146184;27;20055;-76
2023/06/17 13:58:30;;;;;;;2.50;1.30;;;;;;;;;;5146252;27;20039;-75
2023/06/17 14:01:00;;;;;;;2.53;1.27;;;;;;;;;;5146222;27;20043;-76
2023/06/17 14:03:31;;;;;;;4.00;1.23;;;;;;;;;;5146499;27;20047;-75
2023/06/17 14:06:02;;;;;;;5.50;2.17;;;;;;;;;;5127290;27;20054;-76
2023/06/17 14:08:33;;;;;;;4.70;0.93;;;;;;;;;;5128231;27;20071;-77
2023/06/17 14:11:05;;;;;;;4.97;1.42;;;;;;;;;;5146565;27;20404;-75
2023/06/17 14:13:35;;;;;;;4.28;1.50;;;;;;;;;;5146242;27;20046;-77
2023/06/17 14:16:06;;;;;;;3.10;1.38;;;;;;;;;;5149013;27;20061;-76
2023/06/17 14:18:36;;;;;;;5.28;1.38;;;;;;;;;;5150265;27;20065;-78
2023/06/17 14:21:28;;;;;;;5.20;1.23;;;;;;;;;;5150108;27;20053;-78
2023/06/17 14:24:08;;;;;;;3.08;1.50;;;;;;;;;;5150222;27;20046;-75
2023/06/17 14:26:41;;;;;;;4.45;1.65;;;;;;;;;;5150493;27;20058;-78
2023/06/17 14:29:11;;;;;;;3.97;1.73;;;;;;;;;;5150459;27;20039;-75
2023/06/17 14:31:42;;;;;;;7.25;1.65;;;;;;;;;;5149784;27;20050;-76
2023/06/17 14:34:11;;;;;;;2.33;1.20;;;;;;;;;;5150387;27;20045;-75
2023/06/17 14:36:43;;;;;;;3.90;1.52;;;;;;;;;;5150396;27;20050;-76
2023/06/17 14:39:15;;;;;;;6.32;1.60;;;;;;;;;;5150076;27;20101;-76
2023/06/17 14:41:45;;;;;;;4.18;0.95;;;;;;;;;;5150333;27;20043;-77
2023/06/17 14:44:15;;;;;;;5.75;2.63;;;;;;;;;;5149738;27;20046;-75
2023/06/17 14:46:45;;;;;;;3.20;1.17;;;;;;;;;;5149831;27;20054;-76
2023/06/17 14:49:16;;;;;;;4.72;1.20;;;;;;;;;;5149701;27;20058;-76
2023/06/17 14:51:48;;;;;;;2.00;1.33;;;;;;;;;;5149883;27;20104;-76
2023/06/17 14:54:18;;;;;;;9.35;1.45;;;;;;;;;;5149496;27;20055;-75
2023/06/17 14:56:49;;;;;;;5.80;1.90;;;;;;;;;;5149888;27;20062;-76
2023/06/17 14:59:21;;;;;;;12.32;1.15;;;;;;;;;;5149731;27;20106;-78
2023/06/17 15:01:52;;;;;;;1.63;0.98;;;;;;;;;;5150021;27;20047;-75
2023/06/17 15:04:22;;;;;;;1.98;1.25;;;;;;;;;;5149724;27;20065;-76
2023/06/17 15:06:52;;;;;;;4.07;1.20;;;;;;;;;;5149331;27;20509;-75
2023/06/17 15:09:29;;;;;;;4.00;1.43;;;;;;;;;;5149072;27;20055;-76
2023/06/17 15:12:07;;;;;;;4.18;1.40;;;;;;;;;;5147975;27;20745;-76
2023/06/17 15:14:40;;;;;;;3.85;1.70;;;;;;;;;;5149403;27;20046;-78